createdAt,value
2019-04-27T00:03:08.310Z,5.40
2019-04-27T00:08:13.978Z,5.13
2019-04-27T00:13:17.816Z,4.70
2019-04-27T00:18:23.362Z,5.90
2019-04-27T00:23:28.387Z,4.57
2019-04-27T00:28:33.231Z,5.70
2019-04-27T00:33:37.321Z,5.03
2019-04-27T00:38:57.354Z,3.53
2019-04-27T00:44:00.955Z,5.83
2019-04-27T00:49:05.157Z,3.67
2019-04-27T00:54:08.800Z,8.03
2019-04-27T00:59:16.879Z,6.53
2019-04-27T01:04:23.692Z,6.83
2019-04-27T01:09:27.739Z,5.87
2019-04-27T01:14:31.777Z,6.33
2019-04-27T01:19:35.366Z,5.27
2019-04-27T01:24:39.179Z,5.90
2019-04-27T01:29:43.102Z,5.03
2019-04-27T01:34:47.354Z,4.90
2019-04-27T01:39:50.946Z,6.87
2019-04-27T01:44:54.535Z,4.93
2019-04-27T01:49:58.582Z,6.90
2019-04-27T01:55:02.249Z,5.20
2019-04-27T02:00:29.463Z,4.90
2019-04-27T02:05:44.502Z,4.90
2019-04-27T02:10:49.634Z,4.90
2019-04-27T02:15:53.398Z,6.47
2019-04-27T02:20:56.986Z,4.63
2019-04-27T02:26:00.706Z,4.80
2019-04-27T02:31:15.846Z,5.33
2019-04-27T02:36:20.191Z,3.93
2019-04-27T02:41:24.144Z,5.80
2019-04-27T02:46:29.429Z,6.63
2019-04-27T02:51:35.038Z,5.23
2019-04-27T02:56:40.555Z,4.53
2019-04-27T03:02:04.901Z,4.87
2019-04-27T03:07:11.238Z,3.93
2019-04-27T03:12:16.137Z,5.43
2019-04-27T03:17:27.454Z,4.87
2019-04-27T03:22:32.744Z,7.13
2019-04-27T03:27:56.251Z,4.97
2019-04-27T03:33:02.903Z,4.67
2019-04-27T03:38:05.540Z,5.87
2019-04-27T03:43:13.933Z,4.87
2019-04-27T03:48:20.179Z,6.63
2019-04-27T03:53:24.701Z,6.23
2019-04-27T03:58:33.630Z,6.27
2019-04-27T04:03:39.359Z,11.30
2019-04-27T04:08:43.323Z,5.23
2019-04-27T04:13:49.475Z,7.03
2019-04-27T04:19:01.424Z,6.47
2019-04-27T04:24:05.615Z,6.53
2019-04-27T04:29:10.314Z,6.77
2019-04-27T04:34:34.000Z,6.90
2019-04-27T04:39:40.178Z,7.87
2019-04-27T04:44:49.973Z,5.17
2019-04-27T04:50:07.347Z,7.13
2019-04-27T04:54:59.339Z,7.30
2019-04-27T05:00:05.163Z,12.27
2019-04-27T05:05:09.569Z,6.90
2019-04-27T05:10:13.812Z,6.20
2019-04-27T05:15:20.420Z,6.60
2019-04-27T05:20:29.355Z,9.20
2019-04-27T05:25:32.859Z,7.50
2019-04-27T05:30:36.527Z,7.63
2019-04-27T05:35:41.012Z,9.03
2019-04-27T05:40:45.271Z,8.80
2019-04-27T05:46:12.366Z,7.20
2019-04-27T05:51:15.398Z,6.93
2019-04-27T05:56:19.271Z,5.43
2019-04-27T06:01:24.354Z,6.90
2019-04-27T06:06:29.546Z,6.30
2019-04-27T06:11:33.443Z,5.20
2019-04-27T06:16:39.222Z,4.37
2019-04-27T06:21:42.697Z,6.93
2019-04-27T06:26:46.333Z,5.47
2019-04-27T06:31:50.046Z,5.30
2019-04-27T06:36:53.767Z,4.83
2019-04-27T06:41:59.058Z,5.93
2019-04-27T06:47:03.128Z,5.63
2019-04-27T06:52:08.487Z,7.70
2019-04-27T06:57:12.418Z,8.20
2019-04-27T07:02:16.005Z,8.47
2019-04-27T07:07:20.030Z,12.73
2019-04-27T07:12:24.197Z,13.23
2019-04-27T07:17:48.704Z,12.47
2019-04-27T07:22:52.568Z,14.77
2019-04-27T07:27:56.198Z,15.90
2019-04-27T07:33:00.396Z,12.90
2019-04-27T07:38:04.179Z,12.07
2019-04-27T07:43:09.823Z,14.77
2019-04-27T07:48:13.503Z,14.60
2019-04-27T07:53:17.129Z,15.23
2019-04-27T07:58:22.222Z,13.50
2019-04-27T08:03:26.126Z,15.50
2019-04-27T08:08:29.855Z,14.37
2019-04-27T08:13:33.510Z,17.00
2019-04-27T08:18:37.271Z,12.90
2019-04-27T08:23:40.930Z,14.47
2019-04-27T08:28:51.975Z,15.20
2019-04-27T08:33:55.559Z,11.07
2019-04-27T08:38:59.165Z,11.43
2019-04-27T08:44:02.831Z,14.30
2019-04-27T08:49:06.435Z,11.67
2019-04-27T08:54:10.281Z,14.03
2019-04-27T08:59:14.274Z,16.40
2019-04-27T09:04:20.071Z,12.97
2019-04-27T09:09:36.894Z,12.37
2019-04-27T09:14:42.124Z,10.50
2019-04-27T09:19:49.143Z,12.40
2019-04-27T09:24:52.958Z,10.87
2019-04-27T09:29:56.618Z,10.87
2019-04-27T09:35:00.405Z,15.30
2019-04-27T09:40:06.316Z,13.43
2019-04-27T09:45:13.828Z,12.10
2019-04-27T09:50:18.090Z,15.97
2019-04-27T09:55:21.956Z,10.43
2019-04-27T10:00:27.633Z,14.47
2019-04-27T10:05:31.500Z,11.73
2019-04-27T10:10:37.015Z,12.93
2019-04-27T10:15:40.476Z,11.20
2019-04-27T10:20:56.955Z,9.90
2019-04-27T10:25:49.819Z,8.33
2019-04-27T10:30:53.553Z,9.60
2019-04-27T10:35:57.655Z,9.00
2019-04-27T10:41:01.386Z,10.07
2019-04-27T10:46:06.678Z,12.23
2019-04-27T10:51:10.482Z,9.83
2019-04-27T10:56:14.194Z,11.03
2019-04-27T11:01:17.954Z,9.13
2019-04-27T11:06:32.587Z,11.77
2019-04-27T11:11:36.429Z,8.80
2019-04-27T11:16:40.166Z,10.67
2019-04-27T11:21:43.759Z,8.53
2019-04-27T11:26:47.818Z,8.27
2019-04-27T11:31:51.743Z,9.43
2019-04-27T11:37:00.013Z,9.20
2019-04-27T11:42:03.691Z,6.13
2019-04-27T11:47:07.391Z,10.80
2019-04-27T11:52:12.278Z,9.57
2019-04-27T11:57:16.386Z,10.23
2019-04-27T12:02:20.315Z,6.80
2019-04-27T12:07:23.915Z,7.13
2019-04-27T12:12:27.494Z,5.73
2019-04-27T12:17:31.215Z,8.67
2019-04-27T12:22:34.879Z,5.13
2019-04-27T12:27:40.169Z,4.37
2019-04-27T12:32:45.341Z,4.97
2019-04-27T12:37:49.137Z,5.53
2019-04-27T12:42:52.971Z,6.77
2019-04-27T12:47:56.810Z,6.93
2019-04-27T12:53:04.775Z,7.00
2019-04-27T12:58:10.143Z,6.57
2019-04-27T13:03:13.864Z,4.17
2019-04-27T13:08:18.084Z,3.93
2019-04-27T13:13:22.027Z,3.60
2019-04-27T13:18:26.108Z,4.20
2019-04-27T13:23:29.723Z,3.70
2019-04-27T13:28:33.382Z,5.63
2019-04-27T13:33:37.313Z,3.70
2019-04-27T13:38:41.345Z,6.97
2019-04-27T13:43:45.450Z,4.73
2019-04-27T13:49:07.319Z,5.80
2019-04-27T13:54:20.209Z,5.00
2019-04-27T13:59:16.211Z,7.63
2019-04-27T14:04:20.127Z,5.17
2019-04-27T14:09:23.722Z,4.60
2019-04-27T14:14:28.807Z,4.13
2019-04-27T14:19:32.507Z,9.60
2019-04-27T14:24:40.587Z,3.57
2019-04-27T14:29:44.245Z,3.73
2019-04-27T14:34:48.523Z,5.43
2019-04-27T14:39:53.303Z,4.87
2019-04-27T14:44:58.788Z,6.30
2019-04-27T14:50:02.279Z,4.63
2019-04-27T14:55:08.538Z,6.90
2019-04-27T15:00:14.576Z,8.13
2019-04-27T15:05:18.646Z,6.07
2019-04-27T15:10:22.300Z,8.00
2019-04-27T15:15:28.337Z,8.60
2019-04-27T15:20:35.762Z,6.50
2019-04-27T15:25:45.503Z,9.03
2019-04-27T15:30:53.529Z,7.77
2019-04-27T15:35:58.755Z,6.47
2019-04-27T15:41:08.668Z,7.83
2019-04-27T15:46:12.226Z,8.13
2019-04-27T15:51:18.333Z,5.73
2019-04-27T15:56:21.800Z,5.70
2019-04-27T16:01:29.685Z,6.97
2019-04-27T16:06:30.990Z,7.12
2019-04-27T16:11:35.828Z,6.57
2019-04-27T16:16:40.430Z,5.57
2019-04-27T16:21:47.057Z,7.97
2019-04-27T16:26:52.158Z,9.07
2019-04-27T16:31:54.667Z,9.70
2019-04-27T16:36:59.466Z,7.23
2019-04-27T16:42:03.121Z,7.27
2019-04-27T16:47:08.403Z,11.67
2019-04-27T16:52:15.959Z,7.63
2019-04-27T16:57:18.456Z,7.27
2019-04-27T17:02:25.103Z,6.80
2019-04-27T17:07:30.248Z,8.53
2019-04-27T17:12:37.770Z,6.63
2019-04-27T17:17:42.794Z,7.87
2019-04-27T17:22:45.700Z,14.57
2019-04-27T17:27:52.332Z,9.30
2019-04-27T17:33:01.482Z,7.37
2019-04-27T17:38:10.612Z,7.90
2019-04-27T17:43:11.326Z,9.53
2019-04-27T17:48:14.988Z,12.30
2019-04-27T17:53:20.383Z,6.53
2019-04-27T17:58:24.132Z,6.70
2019-04-27T18:03:28.516Z,8.53
2019-04-27T18:08:32.270Z,5.87
2019-04-27T18:13:36.010Z,6.80
2019-04-27T18:18:41.384Z,13.47
2019-04-27T18:23:51.946Z,9.23
2019-04-27T18:28:54.083Z,10.30
2019-04-27T18:33:58.894Z,11.43
2019-04-27T18:39:05.531Z,9.90
2019-04-27T18:44:08.717Z,10.43
2019-04-27T18:49:15.773Z,9.17
2019-04-27T18:54:19.364Z,8.40
2019-04-27T18:59:22.943Z,8.57
2019-04-27T19:04:28.076Z,8.10
2019-04-27T19:09:32.023Z,11.53
2019-04-27T19:14:35.671Z,9.60
2019-04-27T19:19:39.666Z,17.10
2019-04-27T19:24:43.327Z,13.93
2019-04-27T19:29:48.630Z,11.63
2019-04-27T19:34:52.682Z,6.27
2019-04-27T19:39:58.258Z,9.97
2019-04-27T19:45:01.922Z,9.50
2019-04-27T19:50:10.226Z,8.27
2019-04-27T19:55:12.313Z,10.63
2019-04-27T20:00:23.409Z,10.27
2019-04-27T20:05:27.137Z,9.17
2019-04-27T20:10:34.171Z,9.40
2019-04-27T20:15:36.392Z,8.40
2019-04-27T20:20:40.042Z,11.00
2019-04-27T20:25:43.630Z,14.43
2019-04-27T20:30:47.215Z,9.37
2019-04-27T20:35:51.061Z,9.03
2019-04-27T20:40:54.838Z,12.53
2019-04-27T20:45:58.603Z,8.23
2019-04-27T20:51:02.199Z,8.63
2019-04-27T20:56:05.842Z,8.40
2019-04-27T21:01:09.434Z,8.87
2019-04-27T21:06:15.178Z,9.97
2019-04-27T21:11:20.926Z,10.30
2019-04-27T21:16:25.021Z,16.07
2019-04-27T21:21:28.913Z,12.67
2019-04-27T21:26:32.503Z,10.70
2019-04-27T21:31:36.254Z,14.53
2019-04-27T21:36:40.857Z,11.00
2019-04-27T21:41:45.570Z,12.63
2019-04-27T21:46:49.160Z,12.63
2019-04-27T21:52:03.210Z,12.70
2019-04-27T21:57:06.856Z,11.30
2019-04-27T22:02:12.259Z,19.57
2019-04-27T22:07:15.905Z,15.00
2019-04-27T22:12:31.672Z,11.43
2019-04-27T22:17:36.015Z,11.57
2019-04-27T22:22:44.066Z,14.47
2019-04-27T22:27:47.718Z,11.37
2019-04-27T22:32:51.786Z,15.57
2019-04-27T22:37:55.794Z,13.70
2019-04-27T22:43:03.986Z,13.10
2019-04-27T22:48:07.881Z,10.63
2019-04-27T22:53:11.670Z,11.67
2019-04-27T22:58:19.458Z,8.80
2019-04-27T23:03:24.780Z,12.93
2019-04-27T23:08:28.512Z,14.20
2019-04-27T23:13:32.617Z,13.43
2019-04-27T23:18:36.266Z,12.07
2019-04-27T23:23:41.380Z,11.33
2019-04-27T23:28:45.151Z,15.03
2019-04-27T23:33:51.841Z,10.07
2019-04-27T23:38:55.872Z,10.37
2019-04-27T23:43:59.523Z,17.83
2019-04-27T23:49:03.253Z,17.33
2019-04-27T23:54:06.922Z,11.80
2019-04-27T23:59:23.754Z,10.00
